Time;durP1;ratioP1;P1;durP2;ratioP2;P2;SDS_P1;SDS_P2;PMS_P1;PMS_P2;Temp;Humidity;BMP_temperature;BMP_pressure;BME280_temperature;BME280_humidity;BME280_pressure;Samples;Min_cycle;Max_cycle;Signal;HPM_P1;HPM_P2
2023/12/20 00:01:15;;;;;;;6.23;5.40;;;;;;;-141.84;100.00;119224.81;4912671;29;20285;-57
2023/12/20 00:03:44;;;;;;;8.20;5.80;;;;;;;-141.84;100.00;119224.81;4911889;29;20230;-56
2023/12/20 00:06:12;;;;;;;6.97;5.43;;;;;;;-141.84;100.00;119224.81;4904642;29;20230;-54
2023/12/20 00:08:41;;;;;;;6.10;5.50;;;;;;;-141.84;100.00;119224.81;4903329;29;20709;-53
2023/12/20 00:11:09;;;;;;;6.57;5.13;;;;;;;-141.84;100.00;119224.81;4903775;29;20826;-54
2023/12/20 00:13:38;;;;;;;5.63;5.03;;;;;;;-141.84;100.00;119224.81;4904123;29;20638;-53
2023/12/20 00:16:08;;;;;;;6.77;5.50;;;;;;;-141.84;100.00;119224.81;4904243;29;20309;-56
2023/12/20 00:18:36;;;;;;;6.27;5.10;;;;;;;-141.84;100.00;119224.81;4900996;29;20254;-53
2023/12/20 00:21:05;;;;;;;6.57;4.83;;;;;;;-141.84;100.00;119224.81;4900071;29;20226;-59
2023/12/20 00:23:34;;;;;;;6.30;5.17;;;;;;;-141.84;100.00;119224.81;4904784;29;20309;-57
2023/12/20 00:26:02;;;;;;;8.80;5.37;;;;;;;-141.84;100.00;119224.81;4903998;29;20223;-58
2023/12/20 00:28:31;;;;;;;5.60;5.03;;;;;;;-141.84;100.00;119224.81;4899140;29;20237;-57
2023/12/20 00:30:59;;;;;;;5.43;4.77;;;;;;;-141.84;100.00;119224.81;4913592;29;20210;-57
2023/12/20 00:33:29;;;;;;;5.27;4.70;;;;;;;-141.84;100.00;119224.81;4911637;29;20222;-59
2023/12/20 00:35:58;;;;;;;5.90;4.60;;;;;;;-141.84;100.00;119224.81;4904964;29;20245;-57
2023/12/20 00:38:26;;;;;;;5.67;4.77;;;;;;;-141.84;100.00;119224.81;4901016;29;20301;-58
2023/12/20 00:40:55;;;;;;;6.47;5.30;;;;;;;-141.84;100.00;119224.81;4902954;29;20691;-58
2023/12/20 00:43:24;;;;;;;5.37;4.87;;;;;;;-141.84;100.00;119224.81;4908817;29;20250;-57
2023/12/20 00:45:53;;;;;;;4.97;4.47;;;;;;;-141.84;100.00;119224.81;4904388;29;20574;-58
2023/12/20 00:48:21;;;;;;;5.87;4.10;;;;;;;-141.84;100.00;119224.81;4903760;29;20225;-58
2023/12/20 00:50:51;;;;;;;4.70;4.30;;;;;;;-141.84;100.00;119224.81;4898347;29;20235;-58
2023/12/20 00:53:19;;;;;;;4.97;4.43;;;;;;;-141.84;100.00;119224.81;4903126;29;20717;-60
2023/12/20 00:55:48;;;;;;;4.43;4.03;;;;;;;-141.84;100.00;119224.81;4903255;29;20257;-60
2023/12/20 00:58:17;;;;;;;4.77;4.10;;;;;;;-141.84;100.00;119224.81;4909986;29;20214;-58
2023/12/20 01:00:46;;;;;;;4.47;4.07;;;;;;;-141.84;100.00;119224.81;4900985;29;20230;-59
2023/12/20 01:03:15;;;;;;;5.30;4.20;;;;;;;-141.84;100.00;119224.81;4901058;29;20265;-57
2023/12/20 01:05:44;;;;;;;4.70;3.63;;;;;;;-141.84;100.00;119224.81;4903068;29;20305;-58
2023/12/20 01:08:14;;;;;;;4.40;4.00;;;;;;;-141.84;100.00;119224.81;4903122;29;20713;-59
2023/12/20 01:10:42;;;;;;;4.97;3.80;;;;;;;-141.84;100.00;119224.81;4903590;29;20836;-60
2023/12/20 01:13:11;;;;;;;4.60;3.57;;;;;;;-141.84;100.00;119224.81;4896530;29;20252;-59
2023/12/20 01:15:39;;;;;;;4.27;3.70;;;;;;;-141.84;100.00;119224.81;4903534;29;20234;-59
2023/12/20 01:18:08;;;;;;;4.53;3.90;;;;;;;-141.84;100.00;119224.81;4903185;29;20236;-58
2023/12/20 01:20:37;;;;;;;4.03;3.63;;;;;;;-141.84;100.00;119224.81;4904435;29;20222;-58
2023/12/20 01:23:05;;;;;;;4.13;3.53;;;;;;;-141.84;100.00;119224.81;4909321;29;20245;-58
2023/12/20 01:25:35;;;;;;;3.80;3.40;;;;;;;-141.84;100.00;119224.81;4902924;29;20257;-59
2023/12/20 01:28:04;;;;;;;3.97;3.57;;;;;;;-141.84;100.00;119224.81;4902034;29;20469;-57
2023/12/20 01:30:33;;;;;;;4.77;3.67;;;;;;;-141.84;100.00;119224.81;4901349;29;20230;-59
2023/12/20 01:33:02;;;;;;;3.77;3.40;;;;;;;-141.84;100.00;119224.81;4902272;29;20242;-59
2023/12/20 01:35:30;;;;;;;3.43;3.03;;;;;;;-141.84;100.00;119224.81;4902725;29;20282;-56
2023/12/20 01:37:59;;;;;;;4.10;3.30;;;;;;;-141.84;100.00;119224.81;4902816;29;20294;-57
2023/12/20 01:40:27;;;;;;;3.00;2.70;;;;;;;-141.84;100.00;119224.81;4903256;29;20206;-56
2023/12/20 01:43:07;;;;;;;3.07;2.80;;;;;;;-141.84;100.00;119224.81;4892872;29;20215;-56
2023/12/20 01:45:36;;;;;;;3.50;3.20;;;;;;;-141.84;100.00;119224.81;4884669;29;20781;-57
2023/12/20 01:48:07;;;;;;;3.30;3.00;;;;;;;-141.84;100.00;119224.81;4894265;29;20285;-55
2023/12/20 01:50:38;;;;;;;3.33;2.97;;;;;;;-141.84;100.00;119224.81;4894515;29;20729;-58
2023/12/20 01:53:08;;;;;;;3.20;2.90;;;;;;;-141.84;100.00;119224.81;4894279;29;20828;-58
2023/12/20 01:55:40;;;;;;;3.00;2.70;;;;;;;-141.84;100.00;119224.81;4889454;29;20230;-56
2023/12/20 01:58:12;;;;;;;3.23;2.60;;;;;;;-141.84;100.00;119224.81;4888268;29;20250;-57
2023/12/20 02:00:40;;;;;;;3.17;2.87;;;;;;;-141.84;100.00;119224.81;4903678;29;20554;-57
2023/12/20 02:03:09;;;;;;;3.20;2.90;;;;;;;-141.84;100.00;119224.81;4905574;29;20222;-57
2023/12/20 02:05:38;;;;;;;3.23;2.50;;;;;;;-141.84;100.00;119224.81;4904852;29;20234;-58
2023/12/20 02:08:08;;;;;;;3.77;3.23;;;;;;;-141.84;100.00;119224.81;4905154;29;20248;-57
2023/12/20 02:10:36;;;;;;;2.67;2.47;;;;;;;-141.84;100.00;119224.81;4905203;29;20208;-58
2023/12/20 02:13:05;;;;;;;3.23;2.87;;;;;;;-141.84;100.00;119224.81;4910910;29;20206;-58
2023/12/20 02:15:36;;;;;;;3.33;3.03;;;;;;;-141.84;100.00;119224.81;4902560;29;20265;-59
2023/12/20 02:18:06;;;;;;;3.40;2.70;;;;;;;-141.84;100.00;119224.81;4904716;29;20278;-58
2023/12/20 02:20:34;;;;;;;3.00;2.60;;;;;;;-141.84;100.00;119224.81;4904962;29;20261;-57
2023/12/20 02:23:04;;;;;;;2.97;2.70;;;;;;;-141.84;100.00;119224.81;4910018;29;20333;-56
2023/12/20 02:25:33;;;;;;;2.80;2.50;;;;;;;-141.84;100.00;119224.81;4903239;29;20939;-58
2023/12/20 02:28:01;;;;;;;3.00;2.70;;;;;;;-141.84;100.00;119224.81;4902845;29;20203;-58
2023/12/20 02:30:30;;;;;;;3.03;2.70;;;;;;;-141.84;100.00;119224.81;4902713;29;20230;-60
2023/12/20 02:33:00;;;;;;;4.23;3.10;;;;;;;-141.84;100.00;119224.81;4904093;29;20258;-57
2023/12/20 02:35:29;;;;;;;2.93;2.60;;;;;;;-141.84;100.00;119224.81;4902400;29;20239;-57
2023/12/20 02:37:57;;;;;;;3.30;3.00;;;;;;;-141.84;100.00;119224.81;4902892;29;20318;-58
2023/12/20 02:40:27;;;;;;;3.20;2.83;;;;;;;-141.84;100.00;119224.81;4906043;29;20241;-60
2023/12/20 02:42:55;;;;;;;3.70;3.20;;;;;;;-141.84;100.00;119224.81;4906367;29;20233;-58
2023/12/20 02:45:24;;;;;;;3.93;2.83;;;;;;;-141.84;100.00;119224.81;4906237;29;20237;-58
2023/12/20 02:47:52;;;;;;;3.27;2.80;;;;;;;-141.84;100.00;119224.81;4908087;29;20305;-58
2023/12/20 02:50:21;;;;;;;3.33;3.00;;;;;;;-141.84;100.00;119224.81;4907202;29;20593;-59
2023/12/20 02:52:50;;;;;;;3.23;2.93;;;;;;;-141.84;100.00;119224.81;4906780;29;20290;-58
2023/12/20 02:55:18;;;;;;;3.47;3.17;;;;;;;-141.84;100.00;119224.81;4908181;29;20305;-59
2023/12/20 02:57:48;;;;;;;3.00;2.70;;;;;;;-141.84;100.00;119224.81;4906047;29;20678;-59
2023/12/20 03:00:17;;;;;;;4.63;3.27;;;;;;;-141.84;100.00;119224.81;4906869;29;20234;-58
2023/12/20 03:02:46;;;;;;;3.70;3.40;;;;;;;-141.84;100.00;119224.81;4907601;29;20261;-59
2023/12/20 03:05:14;;;;;;;3.33;3.03;;;;;;;-141.84;100.00;119224.81;4911816;29;20234;-57
2023/12/20 03:07:43;;;;;;;3.17;2.87;;;;;;;-141.84;100.00;119224.81;4906152;29;20213;-58
2023/12/20 03:10:12;;;;;;;3.60;2.87;;;;;;;-141.84;100.00;119224.81;4910981;29;20651;-57
2023/12/20 03:12:52;;;;;;;3.40;3.10;;;;;;;-141.84;100.00;119224.81;4913193;29;20241;-58
2023/12/20 03:15:21;;;;;;;4.63;3.70;;;;;;;-141.84;100.00;119224.81;4907736;29;20782;-58
2023/12/20 03:17:49;;;;;;;3.90;3.50;;;;;;;-141.84;100.00;119224.81;4907312;29;20294;-59
2023/12/20 03:20:18;;;;;;;4.20;3.80;;;;;;;-141.84;100.00;119224.81;4904798;29;20225;-57
2023/12/20 03:22:47;;;;;;;3.57;3.27;;;;;;;-141.84;100.00;119224.81;4903963;29;20321;-56
2023/12/20 03:25:15;;;;;;;5.00;3.20;;;;;;;-141.84;100.00;119224.81;4905384;29;20225;-56
2023/12/20 03:27:44;;;;;;;3.53;2.87;;;;;;;-141.84;100.00;119224.81;4904813;29;20229;-58
2023/12/20 03:30:15;;;;;;;3.87;3.57;;;;;;;-141.84;100.00;119224.81;4905468;29;20226;-52
2023/12/20 03:32:43;;;;;;;3.40;3.10;;;;;;;-141.84;100.00;119224.81;4905076;29;20254;-56
2023/12/20 03:35:12;;;;;;;2.90;2.60;;;;;;;-141.84;100.00;119224.81;4906080;29;20281;-58
2023/12/20 03:37:40;;;;;;;3.50;3.20;;;;;;;-141.84;100.00;119224.81;4904770;29;20295;-58
2023/12/20 03:40:10;;;;;;;3.40;3.00;;;;;;;-141.84;100.00;119224.81;4905762;29;20739;-57
2023/12/20 03:42:39;;;;;;;3.20;2.90;;;;;;;-141.84;100.00;119224.81;4906036;29;20236;-55
2023/12/20 03:45:08;;;;;;;3.53;3.13;;;;;;;-141.84;100.00;119224.81;4904389;29;20229;-58
2023/12/20 03:47:38;;;;;;;3.40;2.93;;;;;;;-141.84;100.00;119224.81;4912332;29;20262;-55
2023/12/20 03:50:07;;;;;;;3.57;3.27;;;;;;;-141.84;100.00;119224.81;4909115;29;20234;-55
2023/12/20 03:52:36;;;;;;;3.57;3.20;;;;;;;-141.84;100.00;119224.81;4906294;29;20305;-56
2023/12/20 03:55:05;;;;;;;3.20;2.90;;;;;;;-141.84;100.00;119224.81;4904992;29;20321;-56
2023/12/20 03:57:34;;;;;;;3.50;3.20;;;;;;;-141.84;100.00;119224.81;4904257;29;20285;-58
2023/12/20 04:00:02;;;;;;;3.73;3.33;;;;;;;-141.84;100.00;119224.81;4912911;29;20301;-57
2023/12/20 04:02:31;;;;;;;3.73;3.43;;;;;;;-141.84;100.00;119224.81;4904800;29;20321;-57
2023/12/20 04:05:01;;;;;;;4.77;4.27;;;;;;;-141.84;100.00;119224.81;4904699;29;20262;-59
2023/12/20 04:07:30;;;;;;;4.93;4.43;;;;;;;-141.84;100.00;119224.81;4905739;29;20257;-57
2023/12/20 04:09:58;;;;;;;4.50;4.10;;;;;;;-141.84;100.00;119224.81;4909429;29;20195;-57
2023/12/20 04:12:27;;;;;;;5.70;5.10;;;;;;;-141.84;100.00;119224.81;4909627;29;20227;-55
2023/12/20 04:14:55;;;;;;;6.00;4.63;;;;;;;-141.84;100.00;119224.81;4904859;29;20260;-59
2023/12/20 04:17:24;;;;;;;5.33;4.83;;;;;;;-141.84;100.00;119224.81;4902307;29;20225;-57
2023/12/20 04:19:53;;;;;;;5.93;5.00;;;;;;;-141.84;100.00;119224.81;4906427;29;20257;-58
2023/12/20 04:22:23;;;;;;;5.63;4.70;;;;;;;-141.84;100.00;119224.81;4905002;29;20206;-58
2023/12/20 04:24:52;;;;;;;6.33;4.97;;;;;;;-141.84;100.00;119224.81;4903852;29;20240;-60
2023/12/20 04:27:20;;;;;;;5.43;4.57;;;;;;;-141.84;100.00;119224.81;4903706;29;20234;-59
2023/12/20 04:29:49;;;;;;;6.20;4.43;;;;;;;-141.84;100.00;119224.81;4903659;29;20332;-60
2023/12/20 04:32:17;;;;;;;5.07;4.30;;;;;;;-141.84;100.00;119224.81;4903890;29;20256;-59
2023/12/20 04:34:46;;;;;;;5.50;4.43;;;;;;;-141.84;100.00;119224.81;4905092;29;20309;-57
2023/12/20 04:37:14;;;;;;;5.97;4.50;;;;;;;-141.84;100.00;119224.81;4910475;29;20202;-58
2023/12/20 04:39:44;;;;;;;6.20;4.70;;;;;;;-141.84;100.00;119224.81;4906841;29;20333;-58
2023/12/20 04:42:13;;;;;;;7.43;5.47;;;;;;;-141.84;100.00;119224.81;4910318;29;20770;-57
2023/12/20 04:44:43;;;;;;;9.87;8.00;;;;;;;-141.84;100.00;119224.81;4905798;29;20581;-56
2023/12/20 04:47:12;;;;;;;5.53;4.83;;;;;;;-141.84;100.00;119224.81;4904001;29;20321;-57
2023/12/20 04:49:40;;;;;;;5.83;5.03;;;;;;;-141.84;100.00;119224.81;4904916;29;20202;-57
2023/12/20 04:52:09;;;;;;;5.47;4.60;;;;;;;-141.84;100.00;119224.81;4911203;29;20206;-58
2023/12/20 04:54:37;;;;;;;4.47;4.07;;;;;;;-141.84;100.00;119224.81;4904734;29;20231;-58
2023/12/20 04:57:11;;;;;;;4.90;4.30;;;;;;;-141.84;100.00;119224.81;4900403;29;20587;-58
2023/12/20 04:59:39;;;;;;;5.33;4.20;;;;;;;-141.84;100.00;119224.81;4905235;29;20229;-58
2023/12/20 05:02:08;;;;;;;4.63;4.03;;;;;;;-141.84;100.00;119224.81;4905081;29;20240;-58
2023/12/20 05:04:36;;;;;;;5.17;4.30;;;;;;;-141.84;100.00;119224.81;4902358;29;20210;-59
2023/12/20 05:07:05;;;;;;;6.13;4.73;;;;;;;-141.84;100.00;119224.81;4903347;29;20222;-58
2023/12/20 05:09:34;;;;;;;5.37;4.30;;;;;;;-141.84;100.00;119224.81;4902557;29;20589;-58
2023/12/20 05:12:03;;;;;;;5.00;4.40;;;;;;;-141.84;100.00;119224.81;4903141;29;20225;-57
2023/12/20 05:14:32;;;;;;;5.20;4.37;;;;;;;-141.84;100.00;119224.81;4902687;29;20329;-58
2023/12/20 05:17:01;;;;;;;5.27;4.17;;;;;;;-141.84;100.00;119224.81;4904087;29;20314;-58
2023/12/20 05:19:29;;;;;;;7.90;4.33;;;;;;;-141.84;100.00;119224.81;4904970;29;20206;-58
2023/12/20 05:21:58;;;;;;;5.47;4.23;;;;;;;-141.84;100.00;119224.81;4905052;29;20210;-58
2023/12/20 05:24:27;;;;;;;5.13;4.37;;;;;;;-141.84;100.00;119224.81;4902220;29;20233;-59
2023/12/20 05:26:55;;;;;;;5.33;4.47;;;;;;;-141.84;100.00;119224.81;4902991;29;20239;-57
2023/12/20 05:29:24;;;;;;;5.90;5.00;;;;;;;-141.84;100.00;119224.81;4902684;29;20226;-58
2023/12/20 05:31:54;;;;;;;5.57;5.03;;;;;;;-141.84;100.00;119224.81;4908421;29;20257;-58
2023/12/20 05:34:23;;;;;;;6.10;4.63;;;;;;;-141.84;100.00;119224.81;4898624;29;20190;-59
2023/12/20 05:36:51;;;;;;;5.47;4.50;;;;;;;-141.84;100.00;119224.81;4912800;29;20232;-55
2023/12/20 05:39:20;;;;;;;6.17;4.43;;;;;;;-141.84;100.00;119224.81;4906344;29;20229;-58
2023/12/20 05:41:48;;;;;;;4.83;4.30;;;;;;;-141.84;100.00;119224.81;4907099;29;20659;-57
2023/12/20 05:44:17;;;;;;;4.73;4.23;;;;;;;-141.84;100.00;119224.81;4902529;29;20827;-58
2023/12/20 05:46:45;;;;;;;5.80;4.63;;;;;;;-141.84;100.00;119224.81;4895357;29;20309;-57
2023/12/20 05:49:15;;;;;;;4.13;3.73;;;;;;;-141.84;100.00;119224.81;4906792;29;20574;-58
2023/12/20 05:51:44;;;;;;;5.53;4.73;;;;;;;-141.84;100.00;119224.81;4904971;29;20230;-58
2023/12/20 05:54:13;;;;;;;5.73;4.57;;;;;;;-141.84;100.00;119224.81;4904743;29;20225;-58
2023/12/20 05:56:41;;;;;;;5.90;5.30;;;;;;;-141.84;100.00;119224.81;4904950;29;20236;-58
2023/12/20 05:59:10;;;;;;;5.20;4.70;;;;;;;-141.84;100.00;119224.81;4902123;29;20233;-59
2023/12/20 06:01:38;;;;;;;4.90;4.10;;;;;;;-141.84;100.00;119224.81;4903991;29;20277;-59
2023/12/20 06:04:07;;;;;;;6.10;5.50;;;;;;;-141.84;100.00;119224.81;4900371;29;20257;-58
2023/12/20 06:06:42;;;;;;;5.00;4.50;;;;;;;-141.84;100.00;119224.81;4902548;29;20231;-60
2023/12/20 06:09:11;;;;;;;4.63;4.13;;;;;;;-141.84;100.00;119224.81;4906266;29;20612;-59
2023/12/20 06:11:39;;;;;;;4.00;3.60;;;;;;;-141.84;100.00;119224.81;4903262;29;20726;-59
2023/12/20 06:14:08;;;;;;;6.30;5.30;;;;;;;-141.84;100.00;119224.81;4911411;29;20400;-58
2023/12/20 06:16:37;;;;;;;5.80;5.27;;;;;;;-141.84;100.00;119224.81;4908213;29;20709;-59
2023/12/20 06:19:05;;;;;;;5.23;4.73;;;;;;;-141.84;100.00;119224.81;4907022;29;20649;-58
2023/12/20 06:21:35;;;;;;;6.07;5.13;;;;;;;-141.84;100.00;119224.81;4902825;29;20225;-58
2023/12/20 06:24:04;;;;;;;6.00;5.40;;;;;;;-141.84;100.00;119224.81;4905802;29;20320;-59
2023/12/20 06:26:33;;;;;;;6.07;5.40;;;;;;;-141.84;100.00;119224.81;4905994;29;20243;-56
2023/12/20 06:29:01;;;;;;;6.83;4.87;;;;;;;-141.84;100.00;119224.81;4908322;29;20631;-57
2023/12/20 06:31:30;;;;;;;5.63;4.53;;;;;;;-141.84;100.00;119224.81;4913930;29;20248;-57
2023/12/20 06:33:59;;;;;;;6.90;5.40;;;;;;;-141.84;100.00;119224.81;4910517;29;20207;-65
2023/12/20 06:36:28;;;;;;;6.47;5.70;;;;;;;-141.84;100.00;119224.81;4913764;29;20808;-59
2023/12/20 06:38:58;;;;;;;8.20;5.70;;;;;;;-141.84;100.00;119224.81;4905225;29;20321;-58
2023/12/20 06:41:26;;;;;;;7.10;6.37;;;;;;;-141.84;100.00;119224.81;4908296;29;20312;-55
2023/12/20 06:43:55;;;;;;;8.87;6.33;;;;;;;-141.84;100.00;119224.81;4906960;29;20325;-57
2023/12/20 06:46:23;;;;;;;8.10;6.60;;;;;;;-141.84;100.00;119224.81;4904829;29;20313;-57
2023/12/20 06:48:52;;;;;;;8.10;6.90;;;;;;;-141.84;100.00;119224.81;4909590;29;20229;-60
2023/12/20 06:51:21;;;;;;;7.23;5.80;;;;;;;-141.84;100.00;119224.81;4908131;29;20316;-58
2023/12/20 06:53:48;;;;;;;7.23;6.30;;;;;;;-141.84;100.00;119224.81;4913419;29;20317;-57
2023/12/20 06:56:18;;;;;;;6.50;5.43;;;;;;;-141.84;100.00;119224.81;4910885;29;20257;-57
2023/12/20 06:58:47;;;;;;;5.87;5.07;;;;;;;-141.84;100.00;119224.81;4905516;29;20199;-59
2023/12/20 07:01:16;;;;;;;6.23;5.10;;;;;;;-141.84;100.00;119224.81;4906136;29;20238;-57
2023/12/20 07:03:45;;;;;;;5.00;4.10;;;;;;;-141.84;100.00;119224.81;4900441;29;20230;-56
2023/12/20 07:06:16;;;;;;;6.03;4.07;;;;;;;-141.84;100.00;119224.81;4899421;29;20237;-57
2023/12/20 07:08:45;;;;;;;4.80;3.80;;;;;;;-141.84;100.00;119224.81;4911397;29;20230;-56
2023/12/20 07:11:13;;;;;;;4.50;4.07;;;;;;;-141.84;100.00;119224.81;4914648;29;20563;-56
2023/12/20 07:13:43;;;;;;;4.73;3.87;;;;;;;-141.84;100.00;119224.81;4909433;29;20254;-57
2023/12/20 07:16:13;;;;;;;5.27;3.90;;;;;;;-141.84;100.00;119224.81;4915503;29;20198;-56
2023/12/20 07:18:41;;;;;;;5.23;4.37;;;;;;;-141.84;100.00;119224.81;4907928;29;20687;-58
2023/12/20 07:21:10;;;;;;;6.50;3.93;;;;;;;-141.84;100.00;119224.81;4906753;29;20234;-57
2023/12/20 07:23:38;;;;;;;4.47;3.80;;;;;;;-141.84;100.00;119224.81;4906578;29;20241;-58
2023/12/20 07:26:07;;;;;;;8.10;5.40;;;;;;;-141.84;100.00;119224.81;4907549;29;20233;-57
2023/12/20 07:28:36;;;;;;;6.67;4.70;;;;;;;-141.84;100.00;119224.81;4907439;29;20806;-59
2023/12/20 07:31:06;;;;;;;4.27;3.57;;;;;;;-141.84;100.00;119224.81;4915012;29;20265;-56
2023/12/20 07:33:34;;;;;;;4.00;3.27;;;;;;;-141.84;100.00;119224.81;4913960;29;20305;-58
2023/12/20 07:36:08;;;;;;;4.20;3.30;;;;;;;-141.84;100.00;119224.81;4907352;29;20262;-60
2023/12/20 07:38:37;;;;;;;4.03;2.97;;;;;;;-141.84;100.00;119224.81;4902855;29;20243;-59
2023/12/20 07:41:06;;;;;;;4.17;2.83;;;;;;;-141.84;100.00;119224.81;4905010;29;20230;-62
2023/12/20 07:43:36;;;;;;;5.03;3.23;;;;;;;-141.84;100.00;119224.81;4907924;29;20225;-59
2023/12/20 07:46:09;;;;;;;5.77;3.30;;;;;;;-141.84;100.00;119224.81;4904822;29;20260;-59
2023/12/20 07:48:39;;;;;;;5.07;2.77;;;;;;;-141.84;100.00;117089.69;4903565;29;20246;-56
2023/12/20 07:51:10;;;;;;;4.77;2.63;;;;;;;-141.84;100.00;112826.88;4906387;29;20598;-57
2023/12/20 07:53:39;;;;;;;5.67;2.63;;;;;;;-141.84;100.00;110963.31;4911102;29;20725;-58
2023/12/20 07:56:16;;;;;;;4.23;2.93;;;;;;;-141.84;100.00;111229.50;4903830;29;20235;-57
2023/12/20 07:58:45;;;;;;;3.00;2.00;;;;;;;-141.84;100.00;112826.88;4903970;29;20228;-57
2023/12/20 08:01:22;;;;;;;3.17;2.37;;;;;;;-141.84;100.00;110431.03;4904204;29;20647;-56
2023/12/20 08:03:51;;;;;;;4.93;1.90;;;;;;;-141.84;100.00;105111.94;4904454;29;20777;-58
2023/12/20 08:06:20;;;;;;;2.97;1.80;;;;;;;-141.84;100.00;107770.63;4905767;29;20227;-58
2023/12/20 08:08:49;;;;;;;3.73;2.00;;;;;;;-141.84;100.00;109898.81;4906650;29;20237;-58
2023/12/20 08:11:29;;;;;;;3.00;1.87;;;;;;;-141.84;100.00;112028.13;4904552;29;20286;-57
2023/12/20 08:13:58;;;;;;;5.23;1.70;;;;;;;-141.84;100.00;107770.63;4905129;29;20492;-55
2023/12/20 08:16:28;;;;;;;2.40;1.83;;;;;;;-141.84;100.00;104314.66;4904013;29;20210;-58
2023/12/20 08:18:56;;;;;;;4.13;2.10;;;;;;;-141.84;100.00;102455.00;4905717;29;20223;-58
2023/12/20 08:21:25;;;;;;;2.80;1.87;;;;;;;-141.84;100.00;102189.38;4905919;29;20236;-56
2023/12/20 08:23:53;;;;;;;3.43;2.10;;;;;;;-141.84;100.00;100330.69;4905977;29;20229;-55
2023/12/20 08:26:24;;;;;;;2.80;1.87;;;;;;;-141.84;100.00;90520.28;4905601;29;20230;-56
2023/12/20 08:28:52;;;;;;;2.43;1.50;;;;;;;-141.84;99.48;81262.06;4908637;29;20231;-58
2023/12/20 08:31:21;;;;;;;5.40;1.80;;;;;;;-141.84;97.87;73607.09;4909618;29;20567;-58
2023/12/20 08:33:53;;;;;;;3.47;1.90;;;;;;;-141.84;98.39;76245.09;4884465;29;20237;-59
2023/12/20 08:36:23;;;;;;;6.87;1.87;;;;;;;-141.84;98.00;75189.69;4905856;29;20424;-57
2023/12/20 08:38:52;;;;;;;5.23;1.90;;;;;;;-141.84;96.23;66493.19;4900991;29;20235;-58
2023/12/20 08:41:21;;;;;;;3.70;1.93;;;;;;;-141.84;96.69;68336.31;4894806;29;20231;-56
2023/12/20 08:43:49;;;;;;;3.10;1.90;;;;;;;-141.84;97.32;71234.38;4892501;29;20237;-58
2023/12/20 08:46:18;;;;;;;2.43;1.90;;;;;;;-141.84;94.97;62809.50;4912105;29;20206;-58
2023/12/20 08:48:47;;;;;;;3.10;1.60;;;;;;;-141.84;96.18;64914.06;4910580;29;20222;-59
2023/12/20 08:51:17;;;;;;;2.37;1.60;;;;;;;-141.84;94.97;59917.56;4910097;29;20304;-54
2023/12/20 08:53:47;;;;;;;2.77;1.80;;;;;;;-141.84;96.82;67546.31;4910553;29;20238;-56
2023/12/20 08:56:16;;;;;;;3.63;1.90;;;;;;;-141.84;97.57;71497.94;4912461;29;20651;-55
2023/12/20 08:58:45;;;;;;;3.33;2.53;;;;;;;-141.84;96.35;68336.31;4902290;29;20242;-57
2023/12/20 09:01:14;;;;;;;3.33;2.10;;;;;;;-141.84;95.04;60443.22;4906881;29;20639;-54
2023/12/20 09:03:43;;;;;;;7.13;2.43;;;;;;;-141.84;96.32;66756.44;4904947;29;20249;-54
2023/12/20 09:06:12;;;;;;;3.13;2.10;;;;;;;-141.84;97.08;70180.31;4906785;29;20225;-54
2023/12/20 09:08:42;;;;;;;4.80;2.00;;;;;;;-141.84;95.78;65177.19;4909231;29;20253;-55
2023/12/20 09:11:11;;;;;;;5.23;2.53;;;;;;;-141.84;95.37;63861.66;4906459;29;20309;-54
2023/12/20 09:13:40;;;;;;;4.77;2.33;;;;;;;-141.84;95.06;62283.53;4904605;29;20203;-56
2023/12/20 09:16:09;;;;;;;3.57;2.30;;;;;;;-141.84;94.31;60968.94;4905272;29;20552;-54
2023/12/20 09:18:38;;;;;;;3.80;2.10;;;;;;;-141.84;93.31;53615.19;4905057;29;20226;-58
2023/12/20 09:21:06;;;;;;;4.77;2.17;;;;;;;-141.84;93.26;49943.41;4904981;29;20268;-58
2023/12/20 09:23:36;;;;;;;4.07;2.20;;;;;;;-141.84;95.54;61757.66;4908457;29;20240;-55
2023/12/20 09:26:06;;;;;;;3.73;2.20;;;;;;;-141.84;96.51;67546.31;4912670;29;20226;-55
2023/12/20 09:28:36;;;;;;;3.90;2.07;;;;;;;-141.84;93.97;59917.56;4909694;29;20223;-56
2023/12/20 09:31:06;;;;;;;5.97;2.50;;;;;;;-141.84;92.07;44965.75;4902991;29;20191;-54
2023/12/20 09:33:35;;;;;;;6.10;1.80;;;;;;;-141.84;92.49;47846.78;4906970;29;20249;-55
2023/12/20 09:36:04;;;;;;;4.27;2.10;;;;;;;-141.84;93.09;51516.59;4904820;29;20229;-58
2023/12/20 09:38:33;;;;;;;4.07;2.20;;;;;;;-141.84;89.64;31715.16;4904796;29;20234;-58
2023/12/20 09:41:03;;;;;;;3.53;2.03;;;;;;;-141.84;87.99;24739.31;4904523;29;20229;-58
2023/12/20 09:43:38;;;;;;;4.57;2.30;;;;;;;-141.84;87.38;23681.31;4905113;29;20201;-56
2023/12/20 09:46:08;;;;;;;3.57;2.50;;;;;;;-141.84;85.66;20732.56;4905169;29;20261;-55
2023/12/20 09:48:38;;;;;;;3.83;2.43;;;;;;;-141.84;85.42;20700.03;4894618;29;20274;-53
2023/12/20 09:51:07;;;;;;;4.10;2.23;;;;;;;-141.84;85.90;21375.00;4905896;29;20278;-54
2023/12/20 09:53:37;;;;;;;3.70;2.50;;;;;;;-141.84;86.39;22019.56;4913954;29;20311;-56
2023/12/20 09:56:08;;;;;;;3.33;2.40;;;;;;;-141.84;82.74;19220.44;4906354;29;20226;-55
2023/12/20 09:58:40;;;;;;;4.97;2.30;;;;;;;-141.84;84.11;19769.13;4906084;29;20271;-56
2023/12/20 10:01:09;;;;;;;4.23;2.37;;;;;;;-141.84;83.71;19561.84;4902114;29;20281;-55
2023/12/20 10:03:42;;;;;;;3.87;2.60;;;;;;;-141.84;83.26;19342.34;4913315;29;20226;-54
2023/12/20 10:06:11;;;;;;;4.43;2.30;;;;;;;-141.84;80.24;18872.97;4908181;29;20233;-59
2023/12/20 10:08:40;;;;;;;3.67;2.80;;;;;;;-141.84;82.82;19415.50;4908346;29;20648;-56
2023/12/20 10:11:09;;;;;;;4.83;2.77;;;;;;;-141.84;80.42;18917.66;4908782;29;20236;-54
2023/12/20 10:13:41;;;;;;;3.20;2.43;;;;;;;-141.84;79.01;18777.47;4904451;29;20282;-57
2023/12/20 10:16:10;;;;;;;5.60;2.67;;;;;;;-141.84;80.23;18860.78;4908447;29;20234;-58
2023/12/20 10:18:39;;;;;;;5.93;2.70;;;;;;;-141.84;77.90;18679.94;4907675;29;20315;-56
2023/12/20 10:21:09;;;;;;;6.23;2.60;;;;;;;-141.84;78.88;18718.56;4908312;29;20233;-58
2023/12/20 10:23:39;;;;;;;4.37;2.47;;;;;;;-141.84;78.75;18740.91;4912731;29;20297;-62
2023/12/20 10:26:08;;;;;;;6.83;2.50;;;;;;;-141.84;77.80;18653.53;4906963;29;20236;-57
2023/12/20 10:28:37;;;;;;;5.90;2.70;;;;;;;-141.84;77.25;18649.47;4905319;29;20219;-55
2023/12/20 10:31:07;;;;;;;5.17;3.10;;;;;;;-141.84;77.18;18655.56;4906285;29;20572;-52
2023/12/20 10:33:36;;;;;;;4.37;2.87;;;;;;;-141.84;75.68;18594.63;4909806;29;20314;-56
2023/12/20 10:36:05;;;;;;;3.03;2.20;;;;;;;-141.84;73.49;18556.00;4910863;29;20270;-54
2023/12/20 10:38:35;;;;;;;4.53;2.40;;;;;;;-141.84;72.98;18556.00;4907241;29;20674;-57
2023/12/20 10:41:06;;;;;;;3.37;2.43;;;;;;;-141.84;72.73;18515.38;4905701;29;20323;-57
2023/12/20 10:43:37;;;;;;;7.27;2.13;;;;;;;-141.84;72.49;18562.09;4904696;29;20199;-55
2023/12/20 10:46:08;;;;;;;6.47;2.43;;;;;;;-141.84;72.61;18578.38;4907120;29;20567;-55
2023/12/20 10:48:37;;;;;;;6.13;2.20;;;;;;;-141.84;71.61;18553.97;4908602;29;20238;-55
2023/12/20 10:51:07;;;;;;;5.73;2.50;;;;;;;-141.84;71.62;18519.44;4903614;29;20215;-54
2023/12/20 10:53:37;;;;;;;4.00;2.40;;;;;;;-141.84;72.29;18572.25;4913156;29;20260;-51
2023/12/20 10:56:09;;;;;;;4.27;2.10;;;;;;;-141.84;72.33;18578.38;4907322;29;20230;-55
2023/12/20 10:58:40;;;;;;;5.07;2.10;;;;;;;-141.84;71.60;18564.13;4907079;29;20262;-52
2023/12/20 11:01:13;;;;;;;6.20;2.10;;;;;;;-141.84;71.20;18537.72;4908224;29;20198;-54
2023/12/20 11:03:44;;;;;;;5.10;2.20;;;;;;;-141.84;71.23;18578.38;4907072;29;20657;-56
2023/12/20 11:06:27;;;;;;;5.23;2.07;;;;;;;-141.84;70.62;18551.94;4912408;29;20234;-57
2023/12/20 11:09:10;;;;;;;3.27;2.00;;;;;;;-141.84;70.04;18560.06;4910960;29;20238;-57
2023/12/20 11:11:46;;;;;;;5.13;2.07;;;;;;;-141.84;69.52;18531.63;4907794;29;20710;-56
2023/12/20 11:14:20;;;;;;;5.60;2.03;;;;;;;-141.84;69.06;18537.72;4906793;29;20241;-58